createdAt,value
2022-08-20T00:02:08.037Z,19.49
2022-08-20T00:04:34.647Z,19.49
2022-08-20T00:07:01.448Z,19.47
2022-08-20T00:09:28.131Z,19.47
2022-08-20T00:11:56.695Z,19.42
2022-08-20T00:14:23.384Z,19.43
2022-08-20T00:16:50.207Z,19.43
2022-08-20T00:19:18.296Z,19.37
2022-08-20T00:21:44.965Z,19.31
2022-08-20T00:24:13.547Z,19.25
2022-08-20T00:26:51.676Z,19.16
2022-08-20T00:29:20.129Z,19.12
2022-08-20T00:31:47.124Z,19.06
2022-08-20T00:34:13.886Z,19.03
2022-08-20T00:36:40.503Z,18.99
2022-08-20T00:39:07.114Z,18.95
2022-08-20T00:41:33.805Z,18.93
2022-08-20T00:44:10.457Z,18.89
2022-08-20T00:46:37.823Z,18.92
2022-08-20T00:49:08.266Z,18.89
2022-08-20T00:51:43.879Z,18.86
2022-08-20T00:54:43.034Z,18.86
2022-08-20T00:57:17.747Z,18.86
2022-08-20T00:59:44.529Z,18.85
2022-08-20T01:02:14.376Z,18.86
2022-08-20T01:04:44.718Z,18.85
2022-08-20T01:07:11.338Z,18.87
2022-08-20T01:09:58.654Z,18.88
2022-08-20T01:12:27.219Z,18.86
2022-08-20T01:14:55.731Z,18.86
2022-08-20T01:17:26.639Z,18.85
2022-08-20T01:19:58.467Z,18.83
2022-08-20T01:23:09.123Z,18.82
2022-08-20T01:25:41.440Z,18.83
2022-08-20T01:28:09.995Z,18.83
2022-08-20T01:30:37.635Z,18.85
2022-08-20T01:33:05.065Z,18.86
2022-08-20T01:35:37.226Z,18.85
2022-08-20T01:38:04.738Z,18.82
2022-08-20T01:41:04.667Z,18.79
2022-08-20T01:43:33.302Z,18.77
2022-08-20T01:46:04.158Z,18.75
2022-08-20T01:48:31.455Z,18.76
2022-08-20T01:51:14.870Z,18.76
2022-08-20T01:53:49.304Z,18.77
2022-08-20T01:56:20.196Z,18.79
2022-08-20T01:58:51.536Z,18.78
2022-08-20T02:01:33.225Z,18.78
2022-08-20T02:04:15.275Z,18.78
2022-08-20T02:06:55.935Z,18.77
2022-08-20T02:09:27.944Z,18.76
2022-08-20T02:11:54.939Z,18.78
2022-08-20T02:14:21.975Z,18.79
2022-08-20T02:16:54.799Z,18.78
2022-08-20T02:19:38.422Z,18.79
2022-08-20T02:22:21.503Z,18.75
2022-08-20T02:24:48.300Z,18.73
2022-08-20T02:27:15.802Z,18.71
2022-08-20T02:29:42.571Z,18.76
2022-08-20T02:32:25.141Z,18.76
2022-08-20T02:34:56.093Z,18.77
2022-08-20T02:37:22.923Z,18.77
2022-08-20T02:39:49.584Z,18.80
2022-08-20T02:42:16.942Z,18.77
2022-08-20T02:44:43.613Z,18.76
2022-08-20T02:47:10.202Z,18.78
2022-08-20T02:49:36.925Z,18.74
2022-08-20T02:52:03.893Z,18.74
2022-08-20T02:54:30.583Z,18.76
2022-08-20T02:56:57.168Z,18.75
2022-08-20T02:59:23.835Z,18.77
2022-08-20T03:01:59.464Z,18.78
2022-08-20T03:04:30.407Z,18.77
2022-08-20T03:06:58.079Z,18.77
2022-08-20T03:09:25.221Z,18.75
2022-08-20T03:11:52.257Z,18.73
2022-08-20T03:14:19.580Z,18.71
2022-08-20T03:16:46.154Z,18.70
2022-08-20T03:19:13.857Z,18.68
2022-08-20T03:21:40.686Z,18.68
2022-08-20T03:24:07.437Z,18.68
2022-08-20T03:26:34.194Z,18.65
2022-08-20T03:29:00.858Z,18.64
2022-08-20T03:31:27.510Z,18.65
2022-08-20T03:33:54.173Z,18.67
2022-08-20T03:36:28.002Z,18.65
2022-08-20T03:39:00.941Z,18.66
2022-08-20T03:41:28.683Z,18.65
2022-08-20T03:43:55.839Z,18.64
2022-08-20T03:46:23.801Z,18.62
2022-08-20T03:48:58.698Z,18.62
2022-08-20T03:51:30.764Z,18.60
2022-08-20T03:53:58.201Z,18.58
2022-08-20T03:56:26.321Z,18.57
2022-08-20T03:58:57.668Z,18.57
2022-08-20T04:01:44.605Z,18.57
2022-08-20T04:04:12.405Z,18.55
2022-08-20T04:06:40.417Z,18.54
2022-08-20T04:09:09.519Z,18.54
2022-08-20T04:11:38.296Z,18.54
2022-08-20T04:14:04.943Z,18.52
2022-08-20T04:16:33.042Z,18.50
2022-08-20T04:19:02.224Z,18.50
2022-08-20T04:21:34.784Z,18.51
2022-08-20T04:24:03.007Z,18.50
2022-08-20T04:26:30.355Z,18.51
2022-08-20T04:28:57.229Z,18.50
2022-08-20T04:31:33.307Z,18.49
2022-08-20T04:34:04.508Z,18.52
2022-08-20T04:36:31.445Z,18.52
2022-08-20T04:38:58.118Z,18.51
2022-08-20T04:41:24.758Z,18.55
2022-08-20T04:43:54.159Z,18.54
2022-08-20T04:46:23.867Z,18.52
2022-08-20T04:48:50.769Z,18.51
2022-08-20T04:51:18.182Z,18.55
2022-08-20T04:53:52.136Z,18.56
2022-08-20T04:56:23.857Z,18.61
2022-08-20T04:58:52.519Z,18.64
2022-08-20T05:01:20.114Z,18.64
2022-08-20T05:03:49.319Z,18.69
2022-08-20T05:06:17.694Z,18.69
2022-08-20T05:08:45.007Z,18.68
2022-08-20T05:11:34.183Z,18.67
2022-08-20T05:13:58.892Z,18.73
2022-08-20T05:16:25.631Z,18.74
2022-08-20T05:18:53.004Z,18.79
2022-08-20T05:21:20.786Z,18.87
2022-08-20T05:23:47.763Z,18.93
2022-08-20T05:26:16.041Z,18.95
2022-08-20T05:28:50.717Z,18.91
2022-08-20T05:31:31.436Z,18.91
2022-08-20T05:34:10.442Z,18.89
2022-08-20T05:36:44.708Z,18.89
2022-08-20T05:39:13.371Z,18.98
2022-08-20T05:41:40.961Z,19.02
2022-08-20T05:44:10.907Z,19.14
2022-08-20T05:46:40.921Z,19.21
2022-08-20T05:49:09.193Z,19.29
2022-08-20T05:51:37.019Z,19.25
2022-08-20T05:54:04.996Z,19.20
2022-08-20T05:56:32.082Z,19.22
2022-08-20T05:59:02.872Z,19.16
2022-08-20T06:01:29.697Z,19.21
2022-08-20T06:04:15.403Z,19.33
2022-08-20T06:06:45.853Z,19.39
2022-08-20T06:09:15.369Z,19.44
2022-08-20T06:11:41.998Z,19.52
2022-08-20T06:14:08.622Z,19.59
2022-08-20T06:16:37.438Z,19.46
2022-08-20T06:19:05.429Z,19.31
2022-08-20T06:21:32.314Z,19.31
2022-08-20T06:24:01.354Z,19.44
2022-08-20T06:26:30.594Z,19.54
2022-08-20T06:29:01.858Z,19.76
2022-08-20T06:31:28.588Z,19.47
2022-08-20T06:33:55.382Z,19.36
2022-08-20T06:36:22.026Z,19.57
2022-08-20T06:38:48.786Z,20.06
2022-08-20T06:41:16.522Z,20.16
2022-08-20T06:43:43.161Z,19.98
2022-08-20T06:46:09.822Z,19.96
2022-08-20T06:48:36.702Z,19.94
2022-08-20T06:51:04.263Z,19.95
2022-08-20T06:53:30.891Z,20.43
2022-08-20T06:55:59.302Z,20.49
2022-08-20T06:58:47.676Z,20.64
2022-08-20T07:01:14.664Z,21.08
2022-08-20T07:03:55.471Z,21.48
2022-08-20T07:06:25.675Z,21.49
2022-08-20T07:08:53.113Z,21.59
2022-08-20T07:11:23.735Z,21.43
2022-08-20T07:13:54.922Z,21.66
2022-08-20T07:16:21.738Z,21.61
2022-08-20T07:18:48.335Z,21.34
2022-08-20T07:21:17.335Z,21.12
2022-08-20T07:23:43.986Z,21.26
2022-08-20T07:26:10.831Z,21.56
2022-08-20T07:28:37.406Z,21.84
2022-08-20T07:31:23.415Z,22.45
2022-08-20T07:33:51.291Z,22.78
2022-08-20T07:36:20.397Z,22.32
2022-08-20T07:38:47.789Z,22.48
2022-08-20T07:41:15.084Z,23.10
2022-08-20T07:43:45.225Z,23.19
2022-08-20T07:46:13.967Z,23.19
2022-08-20T07:48:46.291Z,22.62
2022-08-20T07:51:17.139Z,22.06
2022-08-20T07:53:44.816Z,21.96
2022-08-20T07:56:19.257Z,22.37
2022-08-20T07:58:51.785Z,22.76
2022-08-20T08:01:26.077Z,23.03
2022-08-20T08:03:53.964Z,23.63
2022-08-20T08:06:29.755Z,23.47
2022-08-20T08:09:23.637Z,22.97
2022-08-20T08:11:50.550Z,23.47
2022-08-20T08:14:23.362Z,24.06
2022-08-20T08:16:50.843Z,23.58
2022-08-20T08:19:18.874Z,23.37
2022-08-20T08:21:45.528Z,23.26
2022-08-20T08:24:17.993Z,23.19
2022-08-20T08:26:46.030Z,23.53
2022-08-20T08:29:13.467Z,24.12
2022-08-20T08:31:41.261Z,23.77
2022-08-20T08:34:08.533Z,23.68
2022-08-20T08:36:35.411Z,23.76
2022-08-20T08:39:02.026Z,23.75
2022-08-20T08:41:32.184Z,23.81
2022-08-20T08:44:09.417Z,23.89
2022-08-20T08:46:41.663Z,24.18
2022-08-20T08:49:12.227Z,24.34
2022-08-20T08:51:51.610Z,24.35
2022-08-20T08:54:22.269Z,24.39
2022-08-20T08:56:49.952Z,24.57
2022-08-20T08:59:19.385Z,23.85
2022-08-20T09:01:56.219Z,23.14
2022-08-20T09:04:31.915Z,23.90
2022-08-20T09:06:59.807Z,23.16
2022-08-20T09:09:29.551Z,23.45
2022-08-20T09:12:02.414Z,24.72
2022-08-20T09:14:29.214Z,25.09
2022-08-20T09:16:55.821Z,24.89
2022-08-20T09:19:22.433Z,25.02
2022-08-20T09:21:49.212Z,25.34
2022-08-20T09:24:16.119Z,25.09
2022-08-20T09:26:42.756Z,25.40
2022-08-20T09:29:09.963Z,25.75
2022-08-20T09:31:37.812Z,25.77
2022-08-20T09:34:05.830Z,25.82
2022-08-20T09:36:33.250Z,25.99
2022-08-20T09:39:02.988Z,25.99
2022-08-20T09:41:34.470Z,25.94
2022-08-20T09:44:01.875Z,25.97
2022-08-20T09:46:28.480Z,26.21
2022-08-20T09:48:55.400Z,26.12
2022-08-20T09:51:22.893Z,26.10
2022-08-20T09:53:50.262Z,26.02
2022-08-20T09:56:17.404Z,26.07
2022-08-20T09:59:03.097Z,26.03
2022-08-20T10:01:29.872Z,26.15
2022-08-20T10:03:56.498Z,26.21
2022-08-20T10:06:23.225Z,26.25
2022-08-20T10:08:50.072Z,26.31
2022-08-20T10:11:17.963Z,26.25
2022-08-20T10:13:45.156Z,26.12
2022-08-20T10:16:11.814Z,26.48
2022-08-20T10:18:38.469Z,26.26
2022-08-20T10:21:12.571Z,25.94
2022-08-20T10:23:39.403Z,26.15
2022-08-20T10:26:08.089Z,26.33
2022-08-20T10:28:35.457Z,26.67
2022-08-20T10:31:02.134Z,26.75
2022-08-20T10:33:28.713Z,26.51
2022-08-20T10:35:59.768Z,26.56
2022-08-20T10:38:26.720Z,26.87
2022-08-20T10:40:53.346Z,26.94
2022-08-20T10:43:19.931Z,26.83
2022-08-20T10:45:46.527Z,25.84
2022-08-20T10:48:13.941Z,26.24
2022-08-20T10:50:42.786Z,25.86
2022-08-20T10:53:09.369Z,26.40
2022-08-20T10:55:36.040Z,26.65
2022-08-20T10:58:11.381Z,26.20
2022-08-20T11:00:38.540Z,26.26
2022-08-20T11:03:05.211Z,26.30
2022-08-20T11:05:32.142Z,26.37
2022-08-20T11:08:01.803Z,26.56
2022-08-20T11:10:30.902Z,26.55
2022-08-20T11:12:57.518Z,26.68
2022-08-20T11:15:24.380Z,26.67
2022-08-20T11:17:51.214Z,26.74
2022-08-20T11:20:20.342Z,26.63
2022-08-20T11:22:47.623Z,26.63
2022-08-20T11:25:14.689Z,26.70
2022-08-20T11:27:45.169Z,26.95
2022-08-20T11:30:16.280Z,26.69
2022-08-20T11:32:43.049Z,26.42
2022-08-20T11:35:38.861Z,26.51
2022-08-20T11:37:58.415Z,26.41
2022-08-20T11:40:26.523Z,26.39
2022-08-20T11:43:13.790Z,26.54
2022-08-20T11:45:40.103Z,26.59
2022-08-20T11:48:06.741Z,26.57
2022-08-20T11:50:34.209Z,26.50
2022-08-20T11:53:01.025Z,26.23
2022-08-20T11:55:30.482Z,26.20
2022-08-20T11:57:59.832Z,26.01
2022-08-20T12:00:32.961Z,26.07
2022-08-20T12:03:05.283Z,26.28
2022-08-20T12:05:33.208Z,26.33
2022-08-20T12:08:03.999Z,26.54
2022-08-20T12:10:31.131Z,26.35
2022-08-20T12:12:57.944Z,26.41
2022-08-20T12:15:26.720Z,26.65
2022-08-20T12:17:53.641Z,26.63
2022-08-20T12:20:20.337Z,26.59
2022-08-20T12:22:46.943Z,26.54
2022-08-20T12:25:14.354Z,26.07
2022-08-20T12:27:41.705Z,26.28
2022-08-20T12:30:12.983Z,25.76
2022-08-20T12:32:39.635Z,25.74
2022-08-20T12:35:09.157Z,25.98
2022-08-20T12:37:36.235Z,26.07
2022-08-20T12:40:07.015Z,26.06
2022-08-20T12:42:33.726Z,25.90
2022-08-20T12:45:00.942Z,25.68
2022-08-20T12:47:30.900Z,26.02
2022-08-20T12:50:04.337Z,26.13
2022-08-20T12:52:32.620Z,26.14
2022-08-20T12:55:00.333Z,26.20
2022-08-20T12:57:32.767Z,26.11
2022-08-20T13:00:22.606Z,26.27
2022-08-20T13:02:53.181Z,26.09
2022-08-20T13:05:20.659Z,26.07
2022-08-20T13:07:48.208Z,25.88
2022-08-20T13:10:18.661Z,25.44
2022-08-20T13:12:45.271Z,25.31
2022-08-20T13:15:12.589Z,25.42
2022-08-20T13:17:39.714Z,25.67
2022-08-20T13:20:09.617Z,25.76
2022-08-20T13:22:36.685Z,25.81
2022-08-20T13:25:04.668Z,25.44
2022-08-20T13:27:31.353Z,25.30
2022-08-20T13:29:58.989Z,25.49
2022-08-20T13:32:26.384Z,25.38
2022-08-20T13:34:53.395Z,25.54
2022-08-20T13:37:25.553Z,25.62
2022-08-20T13:39:56.967Z,25.68
2022-08-20T13:42:24.065Z,25.57
2022-08-20T13:44:50.912Z,25.12
2022-08-20T13:47:17.471Z,25.29
2022-08-20T13:49:44.540Z,25.03
2022-08-20T13:52:11.809Z,25.16
2022-08-20T13:54:43.607Z,25.28
2022-08-20T13:57:13.066Z,24.88
2022-08-20T13:59:42.895Z,24.28
2022-08-20T14:02:11.238Z,24.83
2022-08-20T14:04:38.248Z,24.54
2022-08-20T14:07:16.774Z,24.38
2022-08-20T14:09:46.721Z,24.72
2022-08-20T14:12:14.547Z,25.13
2022-08-20T14:14:42.218Z,25.35
2022-08-20T14:17:27.058Z,25.32
2022-08-20T14:20:00.928Z,25.26
2022-08-20T14:22:29.394Z,25.35
2022-08-20T14:24:56.564Z,25.44
2022-08-20T14:27:27.751Z,25.16
2022-08-20T14:29:58.286Z,25.16
2022-08-20T14:32:25.623Z,25.24
2022-08-20T14:34:52.956Z,25.08
2022-08-20T14:37:23.210Z,25.00
2022-08-20T14:39:54.078Z,24.52
2022-08-20T14:42:22.891Z,24.20
2022-08-20T14:44:53.314Z,24.47
2022-08-20T14:47:26.743Z,24.45
2022-08-20T14:49:55.855Z,24.64
2022-08-20T14:52:24.141Z,24.68
2022-08-20T14:54:55.249Z,24.89
2022-08-20T14:57:21.975Z,25.10
2022-08-20T14:59:49.303Z,24.81
2022-08-20T15:02:17.186Z,24.63
2022-08-20T15:04:45.575Z,24.57
2022-08-20T15:07:27.949Z,24.20
2022-08-20T15:09:55.509Z,24.28
2022-08-20T15:12:22.974Z,24.54
2022-08-20T15:14:49.748Z,24.91
2022-08-20T15:17:24.815Z,24.90
2022-08-20T15:19:52.297Z,25.06
2022-08-20T15:22:20.007Z,25.02
2022-08-20T15:24:47.632Z,24.84
2022-08-20T15:27:22.738Z,24.61
2022-08-20T15:29:51.450Z,24.45
2022-08-20T15:32:19.285Z,24.21
2022-08-20T15:34:46.460Z,24.19
2022-08-20T15:37:17.015Z,24.14
2022-08-20T15:39:45.099Z,24.01
2022-08-20T15:42:15.278Z,24.02
2022-08-20T15:44:42.975Z,24.03
2022-08-20T15:47:12.343Z,24.18
2022-08-20T15:49:39.031Z,24.16
2022-08-20T15:52:05.744Z,24.27
2022-08-20T15:54:32.406Z,24.22
2022-08-20T15:57:20.247Z,24.17
2022-08-20T16:00:26.498Z,23.87
2022-08-20T16:03:20.737Z,24.02
2022-08-20T16:06:13.711Z,23.92
2022-08-20T16:08:49.327Z,23.85
2022-08-20T16:11:36.410Z,23.73
2022-08-20T16:14:15.436Z,23.92
2022-08-20T16:16:47.598Z,23.83
2022-08-20T16:19:23.006Z,23.90
2022-08-20T16:21:51.488Z,23.75
2022-08-20T16:24:20.017Z,23.77
2022-08-20T16:27:01.647Z,23.67
2022-08-20T16:29:33.964Z,23.78
2022-08-20T16:32:07.887Z,23.51
2022-08-20T16:34:43.069Z,23.66
2022-08-20T16:37:21.871Z,23.72
2022-08-20T16:40:03.291Z,23.77
2022-08-20T16:42:37.228Z,23.63
2022-08-20T16:45:07.364Z,23.64
2022-08-20T16:47:36.560Z,23.36
2022-08-20T16:50:13.419Z,23.37
2022-08-20T16:52:43.099Z,23.39
2022-08-20T16:55:10.629Z,23.32
2022-08-20T16:57:37.727Z,23.21
2022-08-20T17:00:15.811Z,23.18
2022-08-20T17:02:50.838Z,23.22
2022-08-20T17:05:18.519Z,23.09
2022-08-20T17:08:19.906Z,23.10
2022-08-20T17:11:15.842Z,22.98
2022-08-20T17:13:46.356Z,22.82
2022-08-20T17:16:12.908Z,22.74
2022-08-20T17:18:51.098Z,22.70
2022-08-20T17:21:27.072Z,22.62
2022-08-20T17:23:58.142Z,22.54
2022-08-20T17:26:46.503Z,22.49
2022-08-20T17:29:23.845Z,22.50
2022-08-20T17:31:53.852Z,22.33
2022-08-20T17:34:31.609Z,22.36
2022-08-20T17:37:01.846Z,22.28
2022-08-20T17:39:31.468Z,22.26
2022-08-20T17:42:10.499Z,22.18
2022-08-20T17:44:51.893Z,22.17
2022-08-20T17:47:31.844Z,22.06
2022-08-20T17:50:18.879Z,21.97
2022-08-20T17:53:26.054Z,21.93
2022-08-20T17:55:58.662Z,21.78
2022-08-20T17:58:54.982Z,21.74
2022-08-20T18:01:24.017Z,21.64
2022-08-20T18:03:52.903Z,21.57
2022-08-20T18:06:37.356Z,21.47
2022-08-20T18:09:17.464Z,21.39
2022-08-20T18:11:51.981Z,21.27
2022-08-20T18:14:46.152Z,21.15
2022-08-20T18:17:37.240Z,21.11
2022-08-20T18:20:25.036Z,20.93
2022-08-20T18:23:00.086Z,20.76
2022-08-20T18:25:26.620Z,20.75
2022-08-20T18:27:57.638Z,20.68
2022-08-20T18:30:26.056Z,20.55
2022-08-20T18:33:04.019Z,20.31
2022-08-20T18:35:44.871Z,20.12
2022-08-20T18:38:21.923Z,19.84
2022-08-20T18:40:53.119Z,19.71
2022-08-20T18:43:30.546Z,19.44
2022-08-20T18:46:10.255Z,19.27
2022-08-20T18:48:36.911Z,19.08
2022-08-20T18:51:10.447Z,18.84
2022-08-20T18:53:37.124Z,18.61
2022-08-20T18:56:07.775Z,18.42
2022-08-20T18:59:01.864Z,18.23
2022-08-20T19:01:31.774Z,18.13
2022-08-20T19:03:58.688Z,18.02
